Jonesville, Kentucky
Current Conditions -  °F | °C
As of 9:52 AM on Saturday 01 Nov 2014 (Local Time) from KCVG Reporting Station
Overcast Overcast  
Wind Chill: 24°   Ceiling: 1600
Heat Index: 35°   Visibility: 10mi
Dew Point: 29°   Wind: 20mph
Humidity: 78%   Direction: 360°N
Pressure: 30.21"   Gusts: 28mph
Location:  38.64°N, 84.78°W
Report Text: KCVG 011352Z 36017G24KT 10SM OVC016 02/M02 A3021 RMK AO2 SNE27 SLP235 P0000 T00171017 VISNO 36R $
Loading
Personal Weather Stations






























Interactive Weather Map
Tropical Storm Tracking
New forecast layout! Learn more

10-Day Weather Forecast

Advertisements
Track Severe Weather on mobile